Time;durP1;ratioP1;P1;durP2;ratioP2;P2;SDS_P1;SDS_P2;PMS_P1;PMS_P2;Temp;Humidity;BMP_temperature;BMP_pressure;BME280_temperature;BME280_humidity;BME280_pressure;Samples;Min_cycle;Max_cycle;Signal;HPM_P1;HPM_P2
2021/04/23 18:20:31;;;;;;;6.82;1.52;;;;;;;22.92;32.69;102918.09;4236874;27;20634;-49
2021/04/23 18:22:34;;;;;;;5.15;1.15;;;;;;;23.58;30.94;102932.13;4236450;28;20035;-50
2021/04/23 18:25:25;;;;;;;10.32;1.10;;;;;;;23.32;31.54;102925.38;4152643;27;1508747;-53
2021/04/23 18:27:26;;;;;;;10.60;1.20;;;;;;;23.16;32.94;102929.91;4162635;28;20041;-61
2021/04/23 18:29:26;;;;;;;10.48;1.85;;;;;;;23.54;31.33;102924.53;4184095;28;20710;-61
2021/04/23 18:31:26;;;;;;;4.72;1.35;;;;;;;23.39;31.50;102934.44;4183539;28;20151;-60
2021/04/23 18:33:28;;;;;;;9.25;1.45;;;;;;;23.35;31.42;102933.25;4187121;28;20462;-61
2021/04/23 18:35:28;;;;;;;4.68;1.10;;;;;;;23.23;31.32;102930.53;4185263;28;20774;-54
2021/04/23 18:37:29;;;;;;;4.43;1.15;;;;;;;23.22;31.60;102930.78;4167575;28;20037;-60
2021/04/23 18:39:29;;;;;;;5.20;2.03;;;;;;;23.26;31.37;102932.81;4185059;28;20485;-59
2021/04/23 18:41:30;;;;;;;4.85;1.95;;;;;;;23.26;31.35;102927.22;4182166;28;20494;-61
2021/04/23 18:43:31;;;;;;;22.15;3.17;;;;;;;23.55;33.64;102931.84;4167838;28;20047;-58
2021/04/23 18:45:33;;;;;;;17.08;3.65;;;;;;;23.81;31.15;102936.59;4165600;28;20140;-52
2021/04/23 18:47:33;;;;;;;13.27;3.92;;;;;;;23.67;31.39;102935.34;4167915;28;20617;-46
2021/04/23 18:51:07;;;;;;;23.40;8.85;;;;;;;24.22;30.89;102931.47;4162563;27;1497350;-49
2021/04/23 18:53:07;;;;;;;23.92;11.05;;;;;;;24.10;30.38;102925.19;4154606;27;20053;-54
2021/04/23 18:55:09;;;;;;;9.52;4.50;;;;;;;24.70;29.46;102930.75;4156006;28;20119;-51
2021/04/23 18:57:09;;;;;;;10.93;4.80;;;;;;;24.34;29.64;102934.09;4153106;28;20083;-58
2021/04/23 18:59:10;;;;;;;17.48;6.07;;;;;;;24.14;29.75;102933.91;4155554;28;20125;-55
2021/04/23 19:01:10;;;;;;;11.00;4.95;;;;;;;23.90;29.89;102924.94;4154746;28;20037;-53
2021/04/23 19:03:57;;;;;;;17.05;5.43;;;;;;;23.69;30.81;102939.53;4149465;27;1547072;-58
2021/04/23 19:05:57;;;;;;;12.77;4.85;;;;;;;23.56;30.55;102933.50;4185482;28;20028;-49
2021/04/23 19:07:58;;;;;;;8.60;4.82;;;;;;;23.58;30.64;102953.69;4185328;28;20538;-54
2021/04/23 19:09:59;;;;;;;17.23;5.07;;;;;;;23.09;31.90;102948.78;4184573;28;20037;-63
2021/04/23 19:12:00;;;;;;;27.80;5.22;;;;;;;22.91;32.02;102936.81;4186747;28;20028;-56
2021/04/23 19:14:02;;;;;;;12.57;4.47;;;;;;;23.80;30.48;102957.28;4180983;28;20025;-51
2021/04/23 19:16:02;;;;;;;11.27;5.00;;;;;;;23.57;31.42;102954.78;4184296;28;20044;-46
2021/04/23 19:18:02;;;;;;;12.38;4.13;;;;;;;23.59;31.07;102952.53;4186308;28;20033;-57
2021/04/23 19:20:08;;;;;;;13.65;4.45;;;;;;;23.55;33.17;102951.41;4183990;28;20067;-65
2021/04/23 19:22:09;;;;;;;12.65;4.43;;;;;;;23.73;31.72;102951.06;4184965;28;20464;-54
2021/04/23 19:24:09;;;;;;;11.50;4.28;;;;;;;23.38;30.44;102959.84;4184770;28;20025;-50
2021/04/23 19:26:10;;;;;;;10.10;4.18;;;;;;;23.23;30.61;102952.88;4183522;28;20522;-45
2021/04/23 19:28:11;;;;;;;13.38;3.88;;;;;;;23.05;31.02;102961.56;4165276;28;20132;-43
2021/04/23 19:30:17;;;;;;;13.75;4.18;;;;;;;22.96;30.63;102947.22;4155212;28;20563;-47
2021/04/23 19:32:17;;;;;;;8.13;4.20;;;;;;;22.93;31.00;102947.72;4161503;28;20029;-43
2021/04/23 19:34:18;;;;;;;16.15;4.43;;;;;;;22.82;30.88;102954.22;4160484;28;20483;-44
2021/04/23 19:36:18;;;;;;;11.82;4.15;;;;;;;22.85;30.98;102951.78;4159640;28;20888;-42
2021/04/23 19:38:20;;;;;;;10.52;3.78;;;;;;;22.89;31.24;102958.53;4157841;28;20419;-54
2021/04/23 19:40:22;;;;;;;13.48;3.83;;;;;;;22.91;30.66;102958.28;4162371;28;20390;-52
2021/04/23 19:42:22;;;;;;;21.23;4.18;;;;;;;23.11;30.42;102949.34;4158020;28;20159;-50
2021/04/23 19:44:23;;;;;;;7.88;3.72;;;;;;;23.25;30.25;102961.00;4157280;28;20042;-52
2021/04/23 19:46:23;;;;;;;9.60;3.75;;;;;;;23.22;30.32;102961.53;4159522;28;20041;-50
2021/04/23 19:48:26;;;;;;;14.40;4.65;;;;;;;23.21;30.37;102957.06;4161064;28;20487;-55
2021/04/23 19:50:27;;;;;;;11.27;4.97;;;;;;;23.16;30.26;102963.41;4136335;28;20776;-57
2021/04/23 19:52:27;;;;;;;17.10;5.63;;;;;;;23.00;30.56;102965.13;4140280;28;20045;-55
2021/04/23 19:54:27;;;;;;;10.93;4.65;;;;;;;23.07;30.39;102965.81;4163172;28;20030;-61
2021/04/23 19:56:28;;;;;;;15.63;4.60;;;;;;;22.70;30.70;102971.91;4165407;28;20040;-61
2021/04/23 19:58:32;;;;;;;15.77;5.93;;;;;;;22.69;30.96;102967.44;4158170;28;20365;-57
2021/04/23 20:00:33;;;;;;;17.30;6.60;;;;;;;22.76;30.98;102965.31;4157373;28;20026;-53
2021/04/23 20:02:33;;;;;;;17.10;6.60;;;;;;;22.62;30.98;102964.78;4162942;28;20058;-49
2021/04/23 20:04:33;;;;;;;16.38;6.15;;;;;;;22.61;30.80;102970.63;4156739;28;20308;-46
2021/04/23 20:06:34;;;;;;;16.65;5.80;;;;;;;22.60;31.38;102967.00;4160735;28;20037;-60
2021/04/23 20:08:34;;;;;;;11.20;5.60;;;;;;;22.56;30.91;102963.00;4154850;28;20668;-48
2021/04/23 20:10:35;;;;;;;16.15;5.72;;;;;;;22.50;30.88;102955.66;4106777;28;20033;-46
2021/04/23 20:12:35;;;;;;;12.30;5.28;;;;;;;22.45;30.96;102963.94;4054110;28;77846;-49
2021/04/23 20:14:37;;;;;;;17.20;5.72;;;;;;;22.40;30.86;102966.63;4123106;28;20027;-47
2021/04/23 20:16:38;;;;;;;12.77;5.13;;;;;;;22.45;30.87;102973.16;4121659;28;20771;-51
2021/04/23 20:18:38;;;;;;;11.90;4.82;;;;;;;22.41;30.83;102965.53;4118216;28;20031;-50
2021/04/23 20:20:39;;;;;;;10.90;4.88;;;;;;;22.46;30.84;102951.66;4122438;28;20042;-55
2021/04/23 20:22:40;;;;;;;10.00;4.82;;;;;;;22.50;30.68;102972.38;4121452;28;20094;-55
2021/04/23 20:24:40;;;;;;;10.75;4.95;;;;;;;22.55;33.93;102963.25;4113898;28;20057;-50
2021/04/23 20:26:41;;;;;;;12.82;4.20;;;;;;;22.47;30.48;102966.47;4119572;28;20392;-53
2021/04/23 20:28:42;;;;;;;12.25;4.80;;;;;;;22.44;31.71;102948.28;4123644;28;20141;-54
2021/04/23 20:30:43;;;;;;;9.88;4.00;;;;;;;22.56;31.29;102954.63;4115515;28;20112;-47
2021/04/23 20:32:44;;;;;;;8.52;3.45;;;;;;;22.54;30.42;102950.41;4121319;28;20046;-47
2021/04/23 20:34:45;;;;;;;10.30;4.30;;;;;;;22.70;31.10;102955.16;4114389;28;20433;-46
2021/04/23 20:36:45;;;;;;;11.30;4.10;;;;;;;22.92;33.42;102946.03;4118044;28;20038;-48
2021/04/23 20:38:46;;;;;;;10.00;4.18;;;;;;;22.90;33.10;102946.28;4121796;28;20053;-54
2021/04/23 20:40:46;;;;;;;9.15;3.65;;;;;;;23.06;33.57;102950.13;4112628;28;20033;-51
2021/04/23 20:42:47;;;;;;;15.55;3.53;;;;;;;22.71;30.15;102942.91;4120027;28;20174;-53
2021/04/23 20:44:49;;;;;;;8.70;3.40;;;;;;;22.53;30.11;102945.94;4120871;28;20105;-47
2021/04/23 20:46:49;;;;;;;7.63;3.25;;;;;;;22.58;30.54;102944.06;4112805;28;20039;-48
2021/04/23 20:48:50;;;;;;;7.57;3.67;;;;;;;22.55;30.63;102941.75;4121272;28;20045;-48
2021/04/23 20:50:50;;;;;;;8.05;3.50;;;;;;;22.40;30.05;102939.59;4124300;28;20026;-51
2021/04/23 20:52:51;;;;;;;7.07;3.42;;;;;;;22.59;33.96;102933.75;4119944;28;20523;-49
2021/04/23 20:54:52;;;;;;;9.35;3.65;;;;;;;22.49;30.41;102941.94;4122210;28;20433;-46
2021/04/23 20:56:52;;;;;;;6.88;3.03;;;;;;;22.44;33.03;102935.16;4120126;28;20031;-52
2021/04/23 20:58:52;;;;;;;7.25;3.35;;;;;;;22.33;30.82;102947.25;4121396;28;20429;-47
2021/04/23 21:00:53;;;;;;;5.70;3.33;;;;;;;22.12;34.37;102926.53;4119244;28;20030;-46
2021/04/23 21:02:53;;;;;;;7.78;3.10;;;;;;;22.26;31.66;102941.84;4123010;28;20062;-47
2021/04/23 21:04:54;;;;;;;6.97;3.47;;;;;;;22.12;30.96;102943.28;4078018;28;20074;-44
2021/04/23 21:06:54;;;;;;;8.00;3.03;;;;;;;22.14;30.27;102948.59;4108493;28;20354;-49
2021/04/23 21:08:54;;;;;;;8.68;3.50;;;;;;;22.19;30.17;102954.25;4105843;28;20035;-51
2021/04/23 21:10:56;;;;;;;9.85;3.13;;;;;;;22.13;30.62;102939.38;4101381;28;20034;-51
2021/04/23 21:12:56;;;;;;;6.45;2.88;;;;;;;22.23;30.78;102944.31;4104928;28;20393;-49
2021/04/23 21:14:57;;;;;;;11.98;2.80;;;;;;;22.35;30.24;102939.47;4104012;28;20023;-46
2021/04/23 21:16:57;;;;;;;6.40;3.08;;;;;;;22.28;30.10;102941.59;4106469;28;20392;-49
2021/04/23 21:18:58;;;;;;;8.50;2.95;;;;;;;22.12;30.34;102942.41;4106552;28;20625;-49
2021/04/23 21:20:58;;;;;;;5.10;2.75;;;;;;;22.15;30.55;102942.78;4104783;28;20113;-49
2021/04/23 21:22:59;;;;;;;8.52;2.72;;;;;;;22.19;30.17;102943.94;4103496;28;20317;-49
2021/04/23 21:24:59;;;;;;;6.78;2.40;;;;;;;22.15;30.32;102939.97;4108850;28;20031;-49
2021/04/23 21:27:58;;;;;;;10.10;2.92;;;;;;;21.77;31.14;102937.81;4196446;28;20571;-67
2021/04/23 21:29:58;;;;;;;7.45;2.38;;;;;;;21.68;31.25;102934.56;4186293;28;20029;-69
2021/04/23 21:32:00;;;;;;;4.20;2.38;;;;;;;21.14;31.78;102937.56;4184888;28;20025;-59
2021/04/23 21:34:01;;;;;;;7.18;2.35;;;;;;;20.70;32.69;102937.06;4189771;28;20515;-61
2021/04/23 21:36:01;;;;;;;8.98;2.78;;;;;;;20.53;33.09;102929.41;4184086;28;20028;-60
2021/04/23 21:38:02;;;;;;;13.65;2.80;;;;;;;20.42;33.22;102933.00;4189080;28;20559;-60
2021/04/23 21:40:04;;;;;;;7.13;2.60;;;;;;;20.32;33.61;102933.59;4187024;28;20282;-66
2021/04/23 21:42:05;;;;;;;7.57;2.45;;;;;;;20.27;33.50;102927.91;4186969;28;20523;-62
2021/04/23 21:44:05;;;;;;;7.72;2.20;;;;;;;20.25;33.26;102924.50;4137431;28;20052;-60
2021/04/23 21:46:06;;;;;;;7.50;2.40;;;;;;;20.21;33.58;102923.28;4192615;28;20037;-59
2021/04/23 21:48:07;;;;;;;6.40;2.65;;;;;;;20.25;33.78;102928.16;4186786;28;20564;-58
2021/04/23 21:50:08;;;;;;;8.43;2.55;;;;;;;20.26;33.35;102927.03;4188776;28;20075;-60
2021/04/23 21:52:08;;;;;;;7.55;2.60;;;;;;;20.24;33.40;102928.38;4186247;28;20051;-59
2021/04/23 21:54:09;;;;;;;9.35;2.45;;;;;;;20.24;33.32;102932.00;4183356;28;20028;-60
2021/04/23 21:56:09;;;;;;;9.23;2.40;;;;;;;20.16;33.54;102921.22;4186289;28;20114;-60
2021/04/23 21:58:10;;;;;;;13.73;2.17;;;;;;;20.19;33.37;102926.31;4186750;28;20033;-59
2021/04/23 22:00:16;;;;;;;8.35;1.98;;;;;;;20.23;33.26;102916.38;4186306;28;20037;-59
2021/04/23 22:02:16;;;;;;;8.80;1.90;;;;;;;20.21;33.07;102924.13;4190005;28;20033;-60
2021/04/23 22:04:17;;;;;;;5.70;2.17;;;;;;;20.15;32.96;102915.91;4184387;28;20481;-60
2021/04/23 22:06:17;;;;;;;6.90;1.88;;;;;;;20.16;32.98;102937.91;4181012;28;20036;-60
2021/04/23 22:08:18;;;;;;;8.25;2.13;;;;;;;20.09;33.00;102931.59;4184368;28;20043;-60
2021/04/23 22:10:18;;;;;;;10.25;2.13;;;;;;;20.01;33.27;102932.78;4181845;28;20041;-60
2021/04/23 22:12:20;;;;;;;6.22;2.20;;;;;;;19.95;33.39;102925.38;4190853;28;20115;-60
2021/04/23 22:14:20;;;;;;;8.25;2.50;;;;;;;19.94;33.25;102929.22;4188788;28;20526;-60
2021/04/23 22:16:21;;;;;;;5.90;2.47;;;;;;;19.91;32.98;102932.47;4183601;28;20064;-60
2021/04/23 22:18:21;;;;;;;5.00;1.85;;;;;;;19.76;33.10;102927.31;4194815;28;20032;-60
2021/04/23 22:20:22;;;;;;;4.80;2.10;;;;;;;19.72;33.37;102931.66;4186301;28;20067;-60
2021/04/23 22:22:22;;;;;;;11.65;2.00;;;;;;;19.64;33.04;102927.25;4185438;28;20051;-60
2021/04/23 22:24:23;;;;;;;5.70;2.28;;;;;;;19.74;33.19;102933.13;4187304;28;20429;-60
2021/04/23 22:26:23;;;;;;;4.90;1.85;;;;;;;19.49;33.18;102927.66;4185674;28;20045;-60
2021/04/23 22:28:24;;;;;;;4.95;2.08;;;;;;;19.48;33.41;102925.09;4187492;28;20062;-60
2021/04/23 22:30:26;;;;;;;6.28;2.17;;;;;;;19.47;33.24;102927.03;4186410;28;20090;-60
2021/04/23 22:32:27;;;;;;;2.78;1.98;;;;;;;19.48;33.30;102930.66;4183290;28;20099;-60
2021/04/23 22:34:27;;;;;;;5.32;1.80;;;;;;;19.43;33.11;102920.25;4186686;28;20036;-60
2021/04/23 22:36:28;;;;;;;4.50;2.13;;;;;;;19.45;33.04;102929.22;4186415;28;20037;-60
2021/04/23 22:38:28;;;;;;;5.85;1.95;;;;;;;19.42;33.04;102930.50;4177823;28;20066;-60
2021/04/23 22:40:29;;;;;;;4.43;2.00;;;;;;;19.36;33.35;102936.16;4172802;28;20044;-60
2021/04/23 22:42:30;;;;;;;4.13;1.92;;;;;;;19.38;33.00;102922.88;4172120;28;20175;-60
2021/04/23 22:44:30;;;;;;;4.30;1.92;;;;;;;19.30;33.19;102924.03;4174816;28;20040;-60
2021/04/23 22:46:31;;;;;;;4.43;1.63;;;;;;;19.20;33.22;102920.94;4173180;28;20943;-60
2021/04/23 22:48:32;;;;;;;3.03;1.73;;;;;;;19.17;33.22;102925.06;4171496;28;20029;-61
2021/04/23 22:50:33;;;;;;;3.58;1.80;;;;;;;19.14;33.16;102917.19;4167119;28;20071;-60
2021/04/23 22:52:33;;;;;;;4.15;1.50;;;;;;;19.06;33.39;102922.97;4176317;28;20028;-60
2021/04/23 22:54:34;;;;;;;3.20;1.42;;;;;;;19.05;33.19;102912.97;4177669;28;20545;-60
2021/04/23 22:56:34;;;;;;;3.35;1.58;;;;;;;19.10;32.73;102927.03;4176510;28;20041;-60
2021/04/23 22:58:34;;;;;;;5.15;1.95;;;;;;;19.07;33.31;102924.69;4177561;28;20036;-60
2021/04/23 23:00:36;;;;;;;3.78;1.75;;;;;;;19.01;33.21;102909.78;4174314;28;20055;-60
2021/04/23 23:02:37;;;;;;;3.95;1.63;;;;;;;19.06;33.01;102920.19;4179242;28;20041;-60
2021/04/23 23:04:37;;;;;;;4.35;1.77;;;;;;;18.95;33.24;102923.75;4180403;28;20071;-59
2021/04/23 23:06:38;;;;;;;2.33;1.70;;;;;;;18.99;33.19;102917.50;4178606;28;20035;-60
2021/04/23 23:08:38;;;;;;;5.32;1.90;;;;;;;18.89;33.17;102923.59;4183363;28;20056;-59
2021/04/23 23:10:39;;;;;;;6.20;1.80;;;;;;;18.86;33.29;102926.81;4177509;28;20584;-60
2021/04/23 23:12:39;;;;;;;4.05;1.58;;;;;;;18.93;33.17;102932.31;4179138;28;20025;-60
2021/04/23 23:14:43;;;;;;;1.80;1.63;;;;;;;18.85;33.10;102922.34;4179624;28;20037;-60
2021/04/23 23:16:44;;;;;;;3.38;1.50;;;;;;;18.88;33.11;102937.69;4177726;28;20106;-60
2021/04/23 23:18:44;;;;;;;2.72;1.42;;;;;;;18.80;33.08;102933.28;4177636;28;20068;-60
2021/04/23 23:20:45;;;;;;;2.05;1.40;;;;;;;18.69;33.23;102922.91;4178818;28;20029;-59
2021/04/23 23:22:45;;;;;;;6.95;1.55;;;;;;;18.68;33.23;102933.16;4181722;28;20056;-60
2021/04/23 23:24:46;;;;;;;2.67;1.25;;;;;;;18.70;33.12;102931.00;4190238;28;20383;-59
2021/04/23 23:26:46;;;;;;;4.97;2.05;;;;;;;18.73;33.24;102937.19;4179842;28;20067;-59
2021/04/23 23:28:47;;;;;;;2.70;1.73;;;;;;;18.63;33.07;102932.13;4171411;28;20119;-60
2021/04/23 23:30:47;;;;;;;3.60;1.42;;;;;;;18.51;33.26;102924.56;4176946;28;20171;-60
2021/04/23 23:32:48;;;;;;;2.20;1.50;;;;;;;18.59;33.27;102930.91;4177098;28;20029;-59
2021/04/23 23:34:48;;;;;;;1.85;1.50;;;;;;;18.54;33.21;102926.03;4175827;28;20064;-60
2021/04/23 23:36:49;;;;;;;3.83;1.75;;;;;;;18.56;33.26;102929.44;4180245;28;20039;-59
2021/04/23 23:38:49;;;;;;;2.00;1.50;;;;;;;18.40;33.39;102921.66;4176760;28;20040;-60
2021/04/23 23:40:50;;;;;;;2.92;1.58;;;;;;;18.50;33.33;102930.34;4176625;28;20037;-60
2021/04/23 23:42:50;;;;;;;4.22;1.85;;;;;;;18.44;33.27;102931.22;4177128;28;20087;-60
2021/04/23 23:44:50;;;;;;;4.75;1.55;;;;;;;18.40;33.29;102925.31;4180582;28;20029;-60
2021/04/23 23:46:51;;;;;;;3.03;1.50;;;;;;;18.42;33.17;102928.69;4181932;28;20148;-59
2021/04/23 23:48:51;;;;;;;1.48;1.20;;;;;;;18.35;33.12;102923.19;4176314;28;20111;-60
2021/04/23 23:50:52;;;;;;;3.80;1.77;;;;;;;18.33;33.09;102928.09;4178721;28;20028;-59
2021/04/23 23:52:52;;;;;;;4.05;1.70;;;;;;;;;;4177897;28;20147;-60
2021/04/23 23:54:53;;;;;;;1.40;0.93;;;;;;;18.30;33.21;102922.13;4180857;28;20029;-60
2021/04/23 23:56:53;;;;;;;2.30;1.38;;;;;;;18.25;33.15;102920.03;4177703;28;20036;-60
2021/04/23 23:58:54;;;;;;;2.80;1.42;;;;;;;18.22;33.54;102927.97;4177511;28;20500;-60
